createdAt,value
2022-11-09T00:02:24.748Z,9.39
2022-11-09T00:04:51.377Z,9.13
2022-11-09T00:07:18.558Z,8.81
2022-11-09T00:09:45.458Z,8.53
2022-11-09T00:12:13.018Z,8.27
2022-11-09T00:14:40.029Z,8.10
2022-11-09T00:17:06.734Z,7.91
2022-11-09T00:19:33.542Z,7.88
2022-11-09T00:22:00.455Z,7.84
2022-11-09T00:24:27.169Z,7.88
2022-11-09T00:26:54.403Z,7.86
2022-11-09T00:29:21.526Z,7.90
2022-11-09T00:31:49.964Z,7.97
2022-11-09T00:34:17.400Z,8.02
2022-11-09T00:36:44.213Z,7.91
2022-11-09T00:39:11.051Z,7.99
2022-11-09T00:41:38.843Z,8.22
2022-11-09T00:44:05.647Z,8.51
2022-11-09T00:46:32.684Z,8.63
2022-11-09T00:48:59.755Z,8.76
2022-11-09T00:51:26.493Z,8.80
2022-11-09T00:53:54.770Z,8.73
2022-11-09T00:56:22.462Z,8.56
2022-11-09T00:58:55.839Z,8.41
2022-11-09T01:01:23.252Z,8.31
2022-11-09T01:03:49.947Z,8.28
2022-11-09T01:06:20.382Z,8.17
2022-11-09T01:08:47.618Z,8.08
2022-11-09T01:11:16.535Z,8.07
2022-11-09T01:13:43.300Z,8.00
2022-11-09T01:16:19.929Z,7.90
2022-11-09T01:18:47.383Z,8.00
2022-11-09T01:21:16.188Z,7.97
2022-11-09T01:23:43.238Z,7.93
2022-11-09T01:26:12.769Z,7.88
2022-11-09T01:28:39.821Z,7.82
2022-11-09T01:31:10.114Z,7.70
2022-11-09T01:33:37.270Z,7.63
2022-11-09T01:36:09.518Z,7.67
2022-11-09T01:38:37.860Z,7.76
2022-11-09T01:41:06.234Z,7.90
2022-11-09T01:43:35.028Z,7.79
2022-11-09T01:46:26.095Z,7.74
2022-11-09T01:48:59.841Z,7.56
2022-11-09T01:51:38.776Z,7.48
2022-11-09T01:54:11.854Z,7.31
2022-11-09T01:56:40.076Z,7.32
2022-11-09T01:59:11.897Z,7.30
2022-11-09T02:01:38.621Z,7.31
2022-11-09T02:04:20.838Z,7.28
2022-11-09T02:06:48.622Z,7.43
2022-11-09T02:09:26.675Z,7.70
2022-11-09T02:11:53.718Z,7.81
2022-11-09T02:14:23.388Z,7.64
2022-11-09T02:16:50.148Z,7.48
2022-11-09T02:19:16.850Z,7.38
2022-11-09T02:21:43.684Z,7.32
2022-11-09T02:24:11.685Z,7.39
2022-11-09T02:27:06.009Z,7.34
2022-11-09T02:29:37.163Z,7.25
2022-11-09T02:32:09.992Z,7.26
2022-11-09T02:34:37.053Z,7.15
2022-11-09T02:37:03.794Z,7.06
2022-11-09T02:39:31.490Z,7.01
2022-11-09T02:42:13.714Z,6.97
2022-11-09T02:44:47.391Z,6.97
2022-11-09T02:47:14.053Z,6.99
2022-11-09T02:49:42.509Z,7.06
2022-11-09T02:52:09.308Z,7.04
2022-11-09T02:54:36.241Z,6.99
2022-11-09T02:57:04.583Z,7.10
2022-11-09T02:59:32.513Z,7.14
2022-11-09T03:01:59.624Z,7.10
2022-11-09T03:04:29.307Z,7.21
2022-11-09T03:06:56.101Z,7.13
2022-11-09T03:09:23.000Z,7.21
2022-11-09T03:11:50.664Z,7.20
2022-11-09T03:14:17.673Z,7.26
2022-11-09T03:16:50.942Z,7.20
2022-11-09T03:19:18.479Z,7.22
2022-11-09T03:21:47.423Z,7.31
2022-11-09T03:24:14.057Z,7.37
2022-11-09T03:26:41.729Z,7.41
2022-11-09T03:29:09.163Z,7.43
2022-11-09T03:31:36.320Z,7.40
2022-11-09T03:34:06.087Z,7.46
2022-11-09T03:36:35.403Z,7.43
2022-11-09T03:39:02.123Z,7.46
2022-11-09T03:41:28.915Z,7.47
2022-11-09T03:43:55.701Z,7.47
2022-11-09T03:46:22.380Z,7.50
2022-11-09T03:48:49.015Z,7.54
2022-11-09T03:51:15.674Z,7.56
2022-11-09T03:53:42.302Z,7.59
2022-11-09T03:56:08.997Z,7.67
2022-11-09T03:58:35.685Z,7.63
2022-11-09T04:01:02.472Z,7.67
2022-11-09T04:03:29.108Z,7.68
2022-11-09T04:05:58.678Z,7.74
2022-11-09T04:08:25.666Z,7.85
2022-11-09T04:10:52.636Z,7.90
2022-11-09T04:13:19.548Z,8.14
2022-11-09T04:15:46.381Z,8.36
2022-11-09T04:18:15.287Z,8.50
2022-11-09T04:20:42.759Z,8.49
2022-11-09T04:23:14.427Z,8.41
2022-11-09T04:25:42.250Z,8.55
2022-11-09T04:28:17.913Z,8.62
2022-11-09T04:30:44.593Z,8.68
2022-11-09T04:33:11.307Z,8.68
2022-11-09T04:35:38.579Z,8.76
2022-11-09T04:38:07.441Z,8.75
2022-11-09T04:40:35.418Z,8.84
2022-11-09T04:43:04.393Z,8.77
2022-11-09T04:45:33.895Z,8.64
2022-11-09T04:48:02.235Z,8.47
2022-11-09T04:50:29.756Z,8.55
2022-11-09T04:53:07.781Z,8.40
2022-11-09T04:55:35.530Z,8.25
2022-11-09T04:58:02.318Z,8.16
2022-11-09T05:00:29.167Z,8.19
2022-11-09T05:02:55.829Z,8.21
2022-11-09T05:05:22.519Z,8.30
2022-11-09T05:07:49.154Z,8.32
2022-11-09T05:10:15.821Z,8.47
2022-11-09T05:12:45.820Z,8.50
2022-11-09T05:15:12.842Z,8.51
2022-11-09T05:17:39.533Z,8.65
2022-11-09T05:20:06.719Z,8.71
2022-11-09T05:22:51.894Z,8.86
2022-11-09T05:25:18.556Z,8.89
2022-11-09T05:27:45.181Z,8.99
2022-11-09T05:30:12.262Z,9.01
2022-11-09T05:32:40.049Z,9.09
2022-11-09T05:35:07.287Z,9.12
2022-11-09T05:37:33.920Z,9.12
2022-11-09T05:40:00.834Z,9.14
2022-11-09T05:42:27.516Z,9.16
2022-11-09T05:44:55.675Z,9.17
2022-11-09T05:47:22.581Z,9.18
2022-11-09T05:49:49.689Z,9.27
2022-11-09T05:52:16.348Z,9.24
2022-11-09T05:54:43.118Z,9.25
2022-11-09T05:57:09.850Z,9.20
2022-11-09T05:59:36.496Z,9.35
2022-11-09T06:02:03.416Z,9.33
2022-11-09T06:04:30.106Z,9.33
2022-11-09T06:06:56.935Z,9.35
2022-11-09T06:09:23.606Z,9.20
2022-11-09T06:11:50.768Z,9.32
2022-11-09T06:14:17.362Z,9.27
2022-11-09T06:16:44.066Z,9.26
2022-11-09T06:19:10.753Z,9.29
2022-11-09T06:21:37.950Z,9.22
2022-11-09T06:24:04.716Z,9.20
2022-11-09T06:26:31.376Z,9.21
2022-11-09T06:28:57.996Z,9.17
2022-11-09T06:31:24.620Z,9.22
2022-11-09T06:33:51.363Z,9.19
2022-11-09T06:36:18.518Z,9.20
2022-11-09T06:38:48.871Z,9.19
2022-11-09T06:41:16.047Z,9.17
2022-11-09T06:43:43.311Z,9.16
2022-11-09T06:46:11.037Z,9.11
2022-11-09T06:48:41.085Z,9.14
2022-11-09T06:51:07.741Z,9.14
2022-11-09T06:53:35.069Z,9.18
2022-11-09T06:56:03.343Z,9.15
2022-11-09T06:58:31.102Z,9.14
2022-11-09T07:00:58.348Z,9.16
2022-11-09T07:03:25.540Z,9.13
2022-11-09T07:05:53.346Z,9.18
2022-11-09T07:08:20.133Z,9.26
2022-11-09T07:10:46.794Z,9.27
2022-11-09T07:13:13.573Z,9.33
2022-11-09T07:15:40.588Z,9.42
2022-11-09T07:18:10.128Z,9.46
2022-11-09T07:20:37.408Z,9.56
2022-11-09T07:23:04.078Z,9.69
2022-11-09T07:25:32.144Z,9.75
2022-11-09T07:28:07.674Z,9.95
2022-11-09T07:30:35.267Z,10.05
2022-11-09T07:33:20.514Z,10.08
2022-11-09T07:35:47.356Z,10.12
2022-11-09T07:38:15.766Z,10.16
2022-11-09T07:40:42.892Z,10.20
2022-11-09T07:43:11.151Z,10.23
2022-11-09T07:45:39.198Z,10.20
2022-11-09T07:48:08.891Z,10.24
2022-11-09T07:50:36.779Z,10.26
2022-11-09T07:53:03.577Z,10.18
2022-11-09T07:55:30.539Z,10.27
2022-11-09T07:58:01.655Z,10.22
2022-11-09T08:00:30.553Z,10.22
2022-11-09T08:02:57.419Z,10.24
2022-11-09T08:05:24.404Z,10.33
2022-11-09T08:07:56.146Z,10.42
2022-11-09T08:10:23.465Z,10.46
2022-11-09T08:13:00.988Z,10.46
2022-11-09T08:15:28.267Z,10.48
2022-11-09T08:17:58.386Z,10.57
2022-11-09T08:20:25.037Z,10.65
2022-11-09T08:22:51.665Z,10.72
2022-11-09T08:25:18.459Z,10.77
2022-11-09T08:27:45.168Z,10.81
2022-11-09T08:30:14.980Z,10.82
2022-11-09T08:32:43.165Z,10.85
2022-11-09T08:35:12.583Z,10.87
2022-11-09T08:37:39.467Z,10.87
2022-11-09T08:40:07.284Z,10.90
2022-11-09T08:42:34.010Z,10.90
2022-11-09T08:45:01.033Z,10.91
2022-11-09T08:47:28.884Z,10.93
2022-11-09T08:49:55.991Z,10.93
2022-11-09T08:52:23.010Z,10.96
2022-11-09T08:54:49.954Z,10.96
2022-11-09T08:57:18.907Z,10.96
2022-11-09T08:59:46.557Z,10.97
2022-11-09T09:02:14.582Z,10.98
2022-11-09T09:04:41.747Z,10.98
2022-11-09T09:07:08.779Z,11.01
2022-11-09T09:09:37.981Z,11.01
2022-11-09T09:12:07.159Z,11.02
2022-11-09T09:14:34.198Z,10.98
2022-11-09T09:17:01.411Z,10.97
2022-11-09T09:19:28.674Z,10.99
2022-11-09T09:21:55.486Z,11.04
2022-11-09T09:24:22.242Z,11.14
2022-11-09T09:26:49.065Z,11.38
2022-11-09T09:29:16.544Z,11.57
2022-11-09T09:31:43.303Z,11.64
2022-11-09T09:34:11.855Z,11.59
2022-11-09T09:36:43.298Z,11.54
2022-11-09T09:39:13.173Z,11.51
2022-11-09T09:41:49.248Z,11.49
2022-11-09T09:44:41.228Z,11.47
2022-11-09T09:47:33.494Z,11.50
2022-11-09T09:50:10.246Z,11.55
2022-11-09T09:53:23.081Z,11.59
2022-11-09T09:55:56.256Z,11.66
2022-11-09T09:58:27.111Z,11.77
2022-11-09T10:01:00.008Z,12.06
2022-11-09T10:03:26.809Z,12.39
2022-11-09T10:06:11.740Z,12.54
2022-11-09T10:08:41.456Z,12.42
2022-11-09T10:11:20.814Z,12.31
2022-11-09T10:13:56.275Z,12.16
2022-11-09T10:16:26.224Z,12.10
2022-11-09T10:19:32.216Z,12.10
2022-11-09T10:22:26.959Z,12.20
2022-11-09T10:26:02.415Z,12.46
2022-11-09T10:28:26.435Z,13.00
2022-11-09T10:30:53.443Z,12.95
2022-11-09T10:33:21.763Z,12.85
2022-11-09T10:36:18.749Z,12.65
2022-11-09T10:38:49.740Z,12.51
2022-11-09T10:41:41.207Z,12.44
2022-11-09T10:44:26.587Z,12.31
2022-11-09T10:47:16.841Z,12.25
2022-11-09T10:50:17.596Z,12.25
2022-11-09T10:53:11.262Z,12.29
2022-11-09T10:56:20.320Z,12.41
2022-11-09T10:59:37.682Z,12.46
2022-11-09T11:02:26.227Z,12.48
2022-11-09T11:05:21.286Z,12.44
2022-11-09T11:08:31.987Z,12.46
2022-11-09T11:11:38.807Z,12.44
2022-11-09T11:14:33.892Z,12.58
2022-11-09T11:17:27.730Z,13.19
2022-11-09T11:20:25.132Z,13.96
2022-11-09T11:23:19.615Z,14.58
2022-11-09T11:26:23.615Z,15.30
2022-11-09T11:29:27.752Z,15.51
2022-11-09T11:32:16.103Z,15.71
2022-11-09T11:35:02.207Z,15.79
2022-11-09T11:37:56.759Z,15.57
2022-11-09T11:41:02.961Z,14.95
2022-11-09T11:44:11.205Z,14.49
2022-11-09T11:47:08.588Z,14.39
2022-11-09T11:50:27.784Z,14.21
2022-11-09T11:53:31.383Z,14.39
2022-11-09T11:56:31.569Z,14.07
2022-11-09T11:59:28.921Z,14.01
2022-11-09T12:02:26.105Z,13.93
2022-11-09T12:05:11.631Z,13.87
2022-11-09T12:08:20.632Z,13.87
2022-11-09T12:11:18.578Z,13.92
2022-11-09T12:14:16.339Z,13.90
2022-11-09T12:17:15.867Z,13.88
2022-11-09T12:20:25.243Z,13.91
2022-11-09T12:23:23.089Z,13.95
2022-11-09T12:26:25.842Z,14.06
2022-11-09T12:29:22.071Z,14.23
2022-11-09T12:32:34.971Z,14.25
2022-11-09T12:35:24.673Z,14.18
2022-11-09T12:38:25.139Z,14.06
2022-11-09T12:41:17.416Z,13.95
2022-11-09T12:44:18.504Z,13.82
2022-11-09T12:47:10.266Z,13.77
2022-11-09T12:49:56.504Z,13.67
2022-11-09T12:52:42.698Z,13.69
2022-11-09T12:55:54.593Z,13.74
2022-11-09T12:58:39.969Z,13.80
2022-11-09T13:01:34.621Z,13.91
2022-11-09T13:04:22.190Z,13.98
2022-11-09T13:07:14.015Z,13.98
2022-11-09T13:10:01.905Z,13.92
2022-11-09T13:12:47.147Z,13.83
2022-11-09T13:15:34.497Z,13.76
2022-11-09T13:18:35.434Z,13.81
2022-11-09T13:21:21.291Z,13.71
2022-11-09T13:24:29.855Z,13.62
2022-11-09T13:27:35.794Z,13.63
2022-11-09T13:30:24.692Z,13.66
2022-11-09T13:33:20.313Z,13.64
2022-11-09T13:36:09.444Z,13.65
2022-11-09T13:39:22.604Z,13.67
2022-11-09T13:42:28.401Z,13.59
2022-11-09T13:45:28.115Z,13.55
2022-11-09T13:48:31.920Z,13.61
2022-11-09T13:51:20.731Z,13.59
2022-11-09T13:54:26.245Z,13.56
2022-11-09T13:57:11.249Z,13.53
2022-11-09T13:59:59.414Z,13.55
2022-11-09T14:02:53.618Z,13.62
2022-11-09T14:05:39.443Z,13.54
2022-11-09T14:08:30.677Z,13.47
2022-11-09T14:11:36.981Z,13.43
2022-11-09T14:14:59.883Z,13.36
2022-11-09T14:18:23.048Z,13.33
2022-11-09T14:21:44.692Z,13.22
2022-11-09T14:24:34.709Z,13.14
2022-11-09T14:27:22.122Z,13.13
2022-11-09T14:30:22.091Z,13.07
2022-11-09T14:33:21.604Z,13.04
2022-11-09T14:36:07.154Z,13.00
2022-11-09T14:38:52.249Z,12.98
2022-11-09T14:41:37.701Z,12.93
2022-11-09T14:44:36.006Z,12.94
2022-11-09T14:47:34.360Z,12.87
2022-11-09T14:50:23.499Z,12.85
2022-11-09T14:53:24.681Z,12.78
2022-11-09T14:56:12.687Z,12.72
2022-11-09T14:58:58.280Z,12.68
2022-11-09T15:02:12.930Z,12.66
2022-11-09T15:05:04.248Z,12.61
2022-11-09T15:07:49.486Z,12.57
2022-11-09T15:10:35.383Z,12.52
2022-11-09T15:13:39.359Z,12.47
2022-11-09T15:16:29.639Z,12.43
2022-11-09T15:19:30.705Z,12.36
2022-11-09T15:22:42.499Z,12.31
2022-11-09T15:25:54.829Z,12.27
2022-11-09T15:28:46.495Z,12.21
2022-11-09T15:31:31.693Z,12.17
2022-11-09T15:34:22.776Z,12.13
2022-11-09T15:37:26.109Z,12.07
2022-11-09T15:40:14.118Z,12.06
2022-11-09T15:42:59.196Z,12.04
2022-11-09T15:45:44.548Z,12.00
2022-11-09T15:48:30.245Z,11.99
2022-11-09T15:51:16.029Z,11.96
2022-11-09T15:54:01.400Z,11.91
2022-11-09T15:56:47.638Z,11.92
2022-11-09T15:59:32.643Z,11.85
2022-11-09T16:02:20.875Z,11.82
2022-11-09T16:05:06.262Z,11.83
2022-11-09T16:07:55.108Z,11.80
2022-11-09T16:10:41.567Z,11.80
2022-11-09T16:13:26.557Z,11.78
2022-11-09T16:16:14.204Z,11.80
2022-11-09T16:18:59.485Z,11.78
2022-11-09T16:21:44.679Z,11.74
2022-11-09T16:24:30.134Z,11.75
2022-11-09T16:27:35.318Z,11.70
2022-11-09T16:30:21.209Z,11.69
2022-11-09T16:33:06.697Z,11.69
2022-11-09T16:35:53.892Z,11.66
2022-11-09T16:38:43.401Z,11.63
2022-11-09T16:41:30.612Z,11.61
2022-11-09T16:44:18.666Z,11.60
2022-11-09T16:47:06.978Z,11.56
2022-11-09T16:49:51.986Z,11.53
2022-11-09T16:52:37.377Z,11.51
2022-11-09T16:55:22.548Z,11.47
2022-11-09T16:58:07.912Z,11.42
2022-11-09T17:01:11.302Z,11.43
2022-11-09T17:03:57.620Z,11.45
2022-11-09T17:06:42.922Z,11.40
2022-11-09T17:09:28.176Z,11.36
2022-11-09T17:12:14.274Z,11.38
2022-11-09T17:14:59.405Z,11.34
2022-11-09T17:17:44.732Z,11.33
2022-11-09T17:20:30.107Z,11.28
2022-11-09T17:23:18.483Z,11.30
2022-11-09T17:26:06.790Z,11.22
2022-11-09T17:28:52.643Z,11.18
2022-11-09T17:31:38.428Z,11.18
2022-11-09T17:34:23.442Z,11.14
2022-11-09T17:37:08.739Z,11.10
2022-11-09T17:39:53.834Z,11.07
2022-11-09T17:42:39.227Z,11.05
2022-11-09T17:45:24.378Z,11.04
2022-11-09T17:48:09.632Z,11.08
2022-11-09T17:50:57.408Z,11.09
2022-11-09T17:53:42.893Z,11.10
2022-11-09T17:56:28.216Z,11.11
2022-11-09T17:59:13.248Z,11.04
2022-11-09T18:01:58.999Z,10.97
2022-11-09T18:04:44.669Z,10.85
2022-11-09T18:07:31.116Z,10.82
2022-11-09T18:10:16.234Z,10.81
2022-11-09T18:13:02.816Z,10.82
2022-11-09T18:15:47.976Z,10.79
2022-11-09T18:18:33.436Z,10.79
2022-11-09T18:21:19.672Z,10.81
2022-11-09T18:24:05.363Z,10.80
2022-11-09T18:26:50.516Z,10.78
2022-11-09T18:29:35.764Z,10.81
2022-11-09T18:32:20.910Z,10.75
2022-11-09T18:35:07.049Z,10.78
2022-11-09T18:37:52.246Z,10.77
2022-11-09T18:40:37.678Z,10.74
2022-11-09T18:43:22.999Z,10.69
2022-11-09T18:46:10.777Z,10.65
2022-11-09T18:48:55.744Z,10.62
2022-11-09T18:51:41.442Z,10.63
2022-11-09T18:54:26.790Z,10.64
2022-11-09T18:57:15.930Z,10.63
2022-11-09T19:00:05.588Z,10.58
2022-11-09T19:02:51.041Z,10.57
2022-11-09T19:05:39.835Z,10.57
2022-11-09T19:08:43.969Z,10.59
2022-11-09T19:11:30.234Z,10.59
2022-11-09T19:14:15.600Z,10.57
2022-11-09T19:17:00.648Z,10.57
2022-11-09T19:19:45.948Z,10.60
2022-11-09T19:22:31.470Z,10.60
2022-11-09T19:25:16.590Z,10.60
2022-11-09T19:28:01.806Z,10.57
2022-11-09T19:30:47.167Z,10.57
2022-11-09T19:33:32.497Z,10.51
2022-11-09T19:36:34.847Z,10.55
2022-11-09T19:39:20.719Z,10.47
2022-11-09T19:42:06.342Z,10.48
2022-11-09T19:44:56.249Z,10.52
2022-11-09T19:47:42.373Z,10.50
2022-11-09T19:50:27.503Z,10.45
2022-11-09T19:53:12.870Z,10.40
2022-11-09T19:55:59.937Z,10.36
2022-11-09T19:58:50.582Z,10.33
2022-11-09T20:01:35.702Z,10.27
2022-11-09T20:04:20.883Z,10.25
2022-11-09T20:07:06.682Z,10.23
2022-11-09T20:09:52.051Z,10.22
2022-11-09T20:12:54.635Z,10.20
2022-11-09T20:15:40.138Z,10.20
2022-11-09T20:18:25.509Z,10.18
2022-11-09T20:21:10.779Z,10.21
2022-11-09T20:23:56.317Z,10.21
2022-11-09T20:26:43.486Z,10.23
2022-11-09T20:29:28.328Z,10.24
2022-11-09T20:32:14.790Z,10.28
2022-11-09T20:35:02.111Z,10.26
2022-11-09T20:37:47.304Z,10.27
2022-11-09T20:40:32.594Z,10.26
2022-11-09T20:43:17.903Z,10.26
2022-11-09T20:46:08.681Z,10.25
2022-11-09T20:48:55.582Z,10.18
2022-11-09T20:51:41.540Z,10.14
2022-11-09T20:54:26.528Z,10.06
2022-11-09T20:57:12.071Z,10.02
2022-11-09T20:59:57.390Z,10.00
2022-11-09T21:02:43.161Z,10.01
2022-11-09T21:05:28.616Z,10.05
2022-11-09T21:08:13.723Z,10.04
2022-11-09T21:11:04.257Z,10.02
2022-11-09T21:13:51.023Z,10.01
2022-11-09T21:16:36.329Z,9.96
2022-11-09T21:19:21.926Z,10.00
2022-11-09T21:22:07.420Z,9.96
2022-11-09T21:25:11.498Z,9.95
2022-11-09T21:28:15.471Z,9.89
2022-11-09T21:31:01.905Z,9.91
2022-11-09T21:33:46.892Z,9.90
2022-11-09T21:36:32.082Z,9.90
2022-11-09T21:39:17.693Z,9.90
2022-11-09T21:42:03.399Z,9.86
2022-11-09T21:44:48.441Z,9.85
2022-11-09T21:47:33.699Z,9.84
2022-11-09T21:50:19.198Z,9.87
2022-11-09T21:53:04.569Z,9.88
2022-11-09T21:55:49.784Z,9.86
2022-11-09T21:58:35.168Z,9.81
2022-11-09T22:01:21.078Z,9.83
2022-11-09T22:04:07.381Z,9.77
2022-11-09T22:06:52.607Z,9.75
2022-11-09T22:10:05.968Z,9.73
2022-11-09T22:13:01.742Z,9.74
2022-11-09T22:16:05.547Z,9.72
2022-11-09T22:19:09.919Z,9.74
2022-11-09T22:21:55.112Z,9.71
2022-11-09T22:24:43.605Z,9.70
2022-11-09T22:27:32.692Z,9.71
2022-11-09T22:30:17.774Z,9.66
2022-11-09T22:33:03.155Z,9.66
2022-11-09T22:35:59.633Z,9.62
2022-11-09T22:38:46.412Z,9.58
2022-11-09T22:41:32.437Z,9.58
2022-11-09T22:44:18.078Z,9.63
2022-11-09T22:47:04.705Z,9.63
2022-11-09T22:49:49.716Z,9.60
2022-11-09T22:52:35.509Z,9.64
2022-11-09T22:55:20.849Z,9.60
2022-11-09T22:58:06.288Z,9.61
2022-11-09T23:00:52.232Z,9.60
2022-11-09T23:03:38.405Z,9.52
2022-11-09T23:06:24.224Z,9.56
2022-11-09T23:09:09.486Z,9.55
2022-11-09T23:11:54.957Z,9.60
2022-11-09T23:14:58.594Z,9.61
2022-11-09T23:18:03.646Z,9.60
2022-11-09T23:20:49.312Z,9.65
2022-11-09T23:23:35.308Z,9.65
2022-11-09T23:26:22.278Z,9.67
2022-11-09T23:29:07.208Z,9.64
2022-11-09T23:31:52.823Z,9.62
2022-11-09T23:34:38.408Z,9.60
2022-11-09T23:37:24.595Z,9.61
2022-11-09T23:40:10.573Z,9.62
2022-11-09T23:43:07.703Z,9.64
2022-11-09T23:45:52.845Z,9.63
2022-11-09T23:48:38.981Z,9.61
2022-11-09T23:51:25.453Z,9.62
2022-11-09T23:54:10.645Z,9.63
2022-11-09T23:56:55.869Z,9.62
2022-11-09T23:59:41.400Z,9.66
